Time;durP1;ratioP1;P1;durP2;ratioP2;P2;SDS_P1;SDS_P2;PMS_P1;PMS_P2;Temp;Humidity;BMP_temperature;BMP_pressure;BME280_temperature;BME280_humidity;BME280_pressure;Samples;Min_cycle;Max_cycle;Signal;HPM_P1;HPM_P2
2022/06/25 00:02:00;;;;;;;14.52;2.97;;;;;;;;;;5012400;28;20037;-75
2022/06/25 00:07:15;;;;;;;14.03;2.57;;;;;;;;;;5011803;28;20055;-75
2022/06/25 00:09:44;;;;;;;10.82;2.60;;;;;;;;;;5025105;28;20175;-75
2022/06/25 00:15:09;;;;;;;9.80;2.40;;;;;;;;;;5013080;28;20357;-77
2022/06/25 00:17:38;;;;;;;11.05;2.50;;;;;;;;;;5019409;28;20391;-75
2022/06/25 00:20:05;;;;;;;11.48;2.42;;;;;;;;;;5008132;28;20037;-76
2022/06/25 00:22:34;;;;;;;8.95;2.42;;;;;;;;;;5015255;28;20825;-75
2022/06/25 00:25:02;;;;;;;11.68;2.80;;;;;;;;;;4994227;28;20080;-75
2022/06/25 00:27:30;;;;;;;9.93;2.80;;;;;;;;;;4981580;28;20032;-75
2022/06/25 00:29:57;;;;;;;12.23;2.35;;;;;;;;;;5014134;28;20468;-75
2022/06/25 00:32:25;;;;;;;13.23;2.70;;;;;;;;;;5012972;28;20033;-75
2022/06/25 00:34:52;;;;;;;9.77;2.47;;;;;;;;;;4994855;28;20452;-75
2022/06/25 00:37:21;;;;;;;10.30;2.35;;;;;;;;;;5001947;28;20112;-75
2022/06/25 00:39:50;;;;;;;12.02;2.60;;;;;;;;;;5018797;28;20086;-75
2022/06/25 00:42:17;;;;;;;16.65;2.90;;;;;;;;;;5000426;28;20052;-75
2022/06/25 00:44:45;;;;;;;12.13;2.63;;;;;;;;;;4998943;28;20543;-75
2022/06/25 00:47:15;;;;;;;17.00;3.20;;;;;;;;;;5010254;28;24051;-77
2022/06/25 00:49:44;;;;;;;13.88;3.15;;;;;;;;;;5017377;28;20036;-76
2022/06/25 00:52:13;;;;;;;12.07;2.60;;;;;;;;;;4995198;28;20043;-77
2022/06/25 00:54:42;;;;;;;11.05;2.63;;;;;;;;;;4980462;28;20053;-77
2022/06/25 00:57:09;;;;;;;12.18;2.70;;;;;;;;;;5013434;28;20552;-74
2022/06/25 00:59:43;;;;;;;15.25;3.10;;;;;;;;;;5018703;28;20440;-76
2022/06/25 01:02:09;;;;;;;13.80;2.65;;;;;;;;;;5015431;28;20526;-76
2022/06/25 01:04:39;;;;;;;14.57;2.47;;;;;;;;;;4998571;28;20468;-76
2022/06/25 01:07:07;;;;;;;16.20;3.15;;;;;;;;;;4993317;28;20486;-76
2022/06/25 01:09:34;;;;;;;14.93;2.92;;;;;;;;;;4999368;28;20565;-76
2022/06/25 01:12:00;;;;;;;16.92;3.00;;;;;;;;;;4997158;28;20347;-76
2022/06/25 01:14:26;;;;;;;12.60;2.85;;;;;;;;;;5013594;28;20033;-76
2022/06/25 01:16:53;;;;;;;13.23;2.85;;;;;;;;;;5002283;28;20052;-76
2022/06/25 01:19:20;;;;;;;14.27;3.25;;;;;;;;;;5011471;28;20033;-76
2022/06/25 01:21:46;;;;;;;13.93;2.88;;;;;;;;;;4999545;28;20688;-76
2022/06/25 01:24:12;;;;;;;13.82;3.70;;;;;;;;;;5010166;28;20041;-76
2022/06/25 01:26:40;;;;;;;11.35;2.83;;;;;;;;;;4994631;28;20551;-76
2022/06/25 01:29:08;;;;;;;16.23;3.30;;;;;;;;;;4996619;28;20037;-74
2022/06/25 01:31:35;;;;;;;13.10;2.72;;;;;;;;;;4995779;28;20037;-75
2022/06/25 01:34:01;;;;;;;15.32;2.67;;;;;;;;;;4988160;28;20038;-75
2022/06/25 01:36:28;;;;;;;14.93;3.05;;;;;;;;;;4995243;28;20026;-75
2022/06/25 01:38:54;;;;;;;14.98;3.00;;;;;;;;;;4994276;28;20094;-75
2022/06/25 01:41:20;;;;;;;14.90;3.08;;;;;;;;;;4997096;28;20511;-76
2022/06/25 01:43:46;;;;;;;17.02;3.47;;;;;;;;;;5001564;28;20030;-76
2022/06/25 01:46:13;;;;;;;14.00;3.05;;;;;;;;;;4994715;28;20038;-76
2022/06/25 01:48:39;;;;;;;15.25;3.25;;;;;;;;;;4998126;28;20037;-76
2022/06/25 01:51:05;;;;;;;12.18;3.00;;;;;;;;;;4994176;28;20091;-75
2022/06/25 01:53:32;;;;;;;14.80;2.90;;;;;;;;;;4997192;28;20245;-76
2022/06/25 01:56:02;;;;;;;13.60;3.30;;;;;;;;;;4993440;28;20455;-75
2022/06/25 01:58:31;;;;;;;15.27;2.90;;;;;;;;;;5000793;28;20026;-75
2022/06/25 02:00:59;;;;;;;12.95;3.33;;;;;;;;;;4999550;28;20033;-75
2022/06/25 02:03:28;;;;;;;16.77;3.47;;;;;;;;;;4998919;28;20034;-77
2022/06/25 02:05:59;;;;;;;17.50;3.47;;;;;;;;;;4994540;28;20026;-76
2022/06/25 02:08:37;;;;;;;13.07;3.03;;;;;;;;;;4997536;28;20505;-75
2022/06/25 02:11:06;;;;;;;12.70;2.78;;;;;;;;;;4998434;28;20103;-77
2022/06/25 02:13:32;;;;;;;13.85;2.78;;;;;;;;;;4998874;28;20068;-78
2022/06/25 02:15:58;;;;;;;13.88;3.15;;;;;;;;;;4997010;28;20401;-78
2022/06/25 02:18:26;;;;;;;16.75;3.22;;;;;;;;;;4996503;28;20576;-75
2022/06/25 02:20:55;;;;;;;14.63;3.17;;;;;;;;;;4997710;28;20064;-77
2022/06/25 02:23:24;;;;;;;17.65;3.42;;;;;;;;;;5002394;28;20114;-77
2022/06/25 02:25:53;;;;;;;14.98;2.90;;;;;;;;;;4995791;28;20132;-77
2022/06/25 02:28:21;;;;;;;11.60;2.80;;;;;;;;;;4998579;28;20136;-76
2022/06/25 02:30:50;;;;;;;11.90;2.60;;;;;;;;;;4999815;28;20037;-76
2022/06/25 02:33:19;;;;;;;12.32;2.50;;;;;;;;;;4997950;28;20599;-78
2022/06/25 02:35:49;;;;;;;14.15;3.03;;;;;;;;;;5001028;28;20040;-77
2022/06/25 02:38:17;;;;;;;13.60;2.85;;;;;;;;;;5000523;28;20038;-75
2022/06/25 02:40:46;;;;;;;11.50;2.40;;;;;;;;;;5000608;28;20029;-75
2022/06/25 02:43:24;;;;;;;12.25;2.58;;;;;;;;;;5003405;28;20029;-75
2022/06/25 02:45:51;;;;;;;12.65;2.60;;;;;;;;;;5000294;28;20558;-75
2022/06/25 02:48:20;;;;;;;12.68;2.53;;;;;;;;;;5001166;28;20801;-75
2022/06/25 02:50:49;;;;;;;13.75;2.50;;;;;;;;;;4997899;28;20563;-78
2022/06/25 02:53:19;;;;;;;13.82;2.70;;;;;;;;;;4995260;28;20767;-76
2022/06/25 03:01:15;;;;;;;12.93;2.97;;;;;;;;;;4993266;28;20674;-77
2022/06/25 03:03:42;;;;;;;9.07;2.45;;;;;;;;;;4997985;28;20037;-76
2022/06/25 03:06:09;;;;;;;8.23;2.10;;;;;;;;;;4992373;28;20829;-76
2022/06/25 03:08:36;;;;;;;8.43;2.00;;;;;;;;;;4997977;28;21246;-76
2022/06/25 03:11:02;;;;;;;9.95;2.08;;;;;;;;;;4998544;28;20030;-76
2022/06/25 03:13:32;;;;;;;10.30;2.05;;;;;;;;;;5002022;28;20264;-76
2022/06/25 03:15:58;;;;;;;7.00;1.98;;;;;;;;;;4994207;28;20049;-76
2022/06/25 03:18:25;;;;;;;9.05;2.03;;;;;;;;;;5000090;28;20471;-76
2022/06/25 03:20:52;;;;;;;7.55;2.03;;;;;;;;;;4998066;28;20613;-76
2022/06/25 03:23:19;;;;;;;9.88;2.10;;;;;;;;;;4997410;28;20380;-75
2022/06/25 03:25:46;;;;;;;9.95;2.15;;;;;;;;;;5007237;28;20069;-76
2022/06/25 03:28:12;;;;;;;9.43;2.20;;;;;;;;;;4995460;28;20060;-76
2022/06/25 03:30:38;;;;;;;11.93;2.42;;;;;;;;;;5000845;28;20048;-77
2022/06/25 03:33:04;;;;;;;8.38;2.10;;;;;;;;;;5013179;28;20597;-76
2022/06/25 03:35:31;;;;;;;10.68;2.65;;;;;;;;;;5020518;28;20028;-76
2022/06/25 03:37:57;;;;;;;10.63;2.70;;;;;;;;;;5014388;28;20049;-76
2022/06/25 03:40:24;;;;;;;11.43;2.45;;;;;;;;;;5020222;28;20422;-76
2022/06/25 03:42:50;;;;;;;11.95;2.80;;;;;;;;;;5017953;28;20033;-76
2022/06/25 03:45:17;;;;;;;12.50;2.70;;;;;;;;;;4998178;28;20114;-76
2022/06/25 03:47:50;;;;;;;10.48;2.80;;;;;;;;;;5017837;28;20033;-76
2022/06/25 03:50:17;;;;;;;12.82;2.88;;;;;;;;;;5017534;28;20552;-76
2022/06/25 03:52:43;;;;;;;12.18;2.92;;;;;;;;;;5018833;28;20459;-75
2022/06/25 03:55:11;;;;;;;9.85;2.75;;;;;;;;;;5017112;28;20589;-75
2022/06/25 03:57:39;;;;;;;13.55;2.85;;;;;;;;;;5015064;28;20017;-75
2022/06/25 04:00:29;;;;;;;11.65;2.50;;;;;;;;;;4980947;28;20051;-75
2022/06/25 04:02:57;;;;;;;8.30;2.17;;;;;;;;;;5016525;28;20025;-75
2022/06/25 04:05:25;;;;;;;8.35;2.10;;;;;;;;;;5016461;28;20471;-75
2022/06/25 04:07:52;;;;;;;9.93;2.10;;;;;;;;;;5015875;28;20037;-78
2022/06/25 04:10:21;;;;;;;9.25;2.60;;;;;;;;;;5018494;28;20108;-75
2022/06/25 04:12:49;;;;;;;11.27;2.90;;;;;;;;;;5001664;28;20037;-76
2022/06/25 04:15:18;;;;;;;12.38;3.00;;;;;;;;;;5014930;28;20025;-75
2022/06/25 04:17:47;;;;;;;10.05;2.53;;;;;;;;;;5002289;28;20130;-74
2022/06/25 04:20:14;;;;;;;11.05;2.50;;;;;;;;;;5014580;28;20025;-75
2022/06/25 04:22:45;;;;;;;12.82;3.00;;;;;;;;;;5016879;28;20427;-75
2022/06/25 04:25:14;;;;;;;9.48;2.28;;;;;;;;;;5012891;28;21449;-75
2022/06/25 04:30:28;;;;;;;11.83;2.70;;;;;;;;;;5017952;28;20050;-75
2022/06/25 04:32:56;;;;;;;12.43;2.35;;;;;;;;;;4998170;28;20063;-75
2022/06/25 04:35:24;;;;;;;9.45;2.30;;;;;;;;;;4999052;28;20025;-76
2022/06/25 04:37:52;;;;;;;8.73;2.03;;;;;;;;;;5015463;28;20531;-76
2022/06/25 04:40:29;;;;;;;7.60;2.22;;;;;;;;;;5017928;28;20087;-75
2022/06/25 04:42:58;;;;;;;11.60;1.92;;;;;;;;;;5019444;28;20036;-75
2022/06/25 04:45:26;;;;;;;7.10;1.90;;;;;;;;;;5017875;28;20037;-75
2022/06/25 04:47:59;;;;;;;9.32;2.05;;;;;;;;;;5014166;28;20539;-76
2022/06/25 04:50:28;;;;;;;7.72;1.90;;;;;;;;;;5000875;28;20048;-75
2022/06/25 04:52:56;;;;;;;8.98;1.95;;;;;;;;;;4999036;28;20029;-75
2022/06/25 04:55:23;;;;;;;15.73;2.78;;;;;;;;;;5017287;28;20021;-77
2022/06/25 04:57:50;;;;;;;22.60;3.97;;;;;;;;;;5023537;28;20083;-76
2022/06/25 05:00:20;;;;;;;24.50;4.40;;;;;;;;;;5016270;28;20044;-78
2022/06/25 05:02:46;;;;;;;19.10;3.00;;;;;;;;;;5001399;28;20355;-75
2022/06/25 05:05:12;;;;;;;;;;;;;;;;;;5015624;28;20044;-76
2022/06/25 05:07:38;;;;;;;19.50;3.33;;;;;;;;;;5018657;28;19964;-76
2022/06/25 05:10:04;;;;;;;16.60;2.75;;;;;;;;;;5012191;28;20034;-75
2022/06/25 05:15:17;;;;;;;13.35;2.63;;;;;;;;;;5014507;28;20095;-75
2022/06/25 05:17:44;;;;;;;9.88;2.35;;;;;;;;;;5021865;28;20025;-76
2022/06/25 05:20:12;;;;;;;10.55;2.70;;;;;;;;;;5013441;28;20048;-78
2022/06/25 05:22:38;;;;;;;10.55;2.20;;;;;;;;;;5020383;28;20428;-75
2022/06/25 05:25:06;;;;;;;8.38;1.95;;;;;;;;;;4998594;28;20766;-75
2022/06/25 05:27:32;;;;;;;9.73;1.95;;;;;;;;;;5005348;28;20052;-76
2022/06/25 05:29:58;;;;;;;11.13;2.00;;;;;;;;;;5016262;28;20036;-76
2022/06/25 05:32:24;;;;;;;10.75;2.15;;;;;;;;;;5002809;28;20040;-76
2022/06/25 05:34:52;;;;;;;11.20;2.30;;;;;;;;;;5022024;28;20087;-76
2022/06/25 05:37:18;;;;;;;9.13;1.70;;;;;;;;;;5023117;28;20102;-77
2022/06/25 05:39:44;;;;;;;8.10;1.60;;;;;;;;;;5004093;28;20554;-77
2022/06/25 05:42:11;;;;;;;8.18;1.83;;;;;;;;;;5014823;28;20029;-76
2022/06/25 05:44:37;;;;;;;9.30;2.05;;;;;;;;;;5018580;28;20171;-75
2022/06/25 05:47:03;;;;;;;10.30;2.00;;;;;;;;;;5002299;28;20032;-76
2022/06/25 05:49:29;;;;;;;8.13;1.98;;;;;;;;;;5022302;28;20395;-75
2022/06/25 05:51:55;;;;;;;7.68;1.80;;;;;;;;;;5000468;28;20762;-75
2022/06/25 05:54:24;;;;;;;11.80;2.33;;;;;;;;;;5020073;28;20032;-76
2022/06/25 05:56:51;;;;;;;9.35;2.28;;;;;;;;;;5019611;28;20040;-76
2022/06/25 05:59:20;;;;;;;8.75;2.03;;;;;;;;;;5022406;28;20037;-76
2022/06/25 06:01:48;;;;;;;13.82;2.20;;;;;;;;;;5021587;28;20395;-75
2022/06/25 06:04:17;;;;;;;10.05;2.10;;;;;;;;;;5000109;28;20558;-76
2022/06/25 06:06:46;;;;;;;8.20;1.98;;;;;;;;;;5018926;28;20050;-75
2022/06/25 06:09:13;;;;;;;7.45;1.77;;;;;;;;;;5002126;28;20598;-75
2022/06/25 06:11:40;;;;;;;9.32;1.70;;;;;;;;;;4999054;28;20136;-77
2022/06/25 06:14:08;;;;;;;8.70;2.00;;;;;;;;;;5018066;28;20716;-75
2022/06/25 06:16:35;;;;;;;7.20;1.55;;;;;;;;;;5020565;28;20128;-75
2022/06/25 06:19:03;;;;;;;6.95;1.55;;;;;;;;;;4997029;28;20568;-75
2022/06/25 06:21:31;;;;;;;8.20;1.60;;;;;;;;;;5020705;28;20447;-76
2022/06/25 06:24:00;;;;;;;8.00;1.63;;;;;;;;;;4999058;28;20472;-75
2022/06/25 06:26:27;;;;;;;8.20;1.85;;;;;;;;;;4995220;28;20492;-75
2022/06/25 06:28:53;;;;;;;15.30;2.33;;;;;;;;;;4994050;28;20038;-75
2022/06/25 06:31:22;;;;;;;9.43;1.98;;;;;;;;;;4997970;28;20017;-76
2022/06/25 06:33:51;;;;;;;8.60;1.70;;;;;;;;;;4994978;28;20049;-76
2022/06/25 06:36:23;;;;;;;10.45;1.67;;;;;;;;;;4997113;28;20041;-76
2022/06/25 06:38:50;;;;;;;9.60;2.17;;;;;;;;;;4996683;28;20080;-77
2022/06/25 06:41:37;;;;;;;6.53;1.77;;;;;;;;;;4994391;28;20068;-77
2022/06/25 06:44:06;;;;;;;8.10;1.65;;;;;;;;;;4993771;28;20498;-77
2022/06/25 06:46:34;;;;;;;6.82;1.50;;;;;;;;;;4996649;28;20597;-75
2022/06/25 06:49:03;;;;;;;8.38;2.03;;;;;;;;;;4997336;28;20044;-77
2022/06/25 06:51:31;;;;;;;9.10;1.70;;;;;;;;;;4998060;28;20061;-76
2022/06/25 06:53:58;;;;;;;10.48;2.40;;;;;;;;;;4992583;28;20481;-76
2022/06/25 06:56:25;;;;;;;12.00;2.08;;;;;;;;;;4997402;28;20111;-76
2022/06/25 06:58:51;;;;;;;8.20;2.17;;;;;;;;;;4999564;28;20116;-76
2022/06/25 07:01:17;;;;;;;8.13;2.03;;;;;;;;;;4996831;28;20143;-76
2022/06/25 07:03:43;;;;;;;10.02;2.10;;;;;;;;;;4992223;28;20388;-76
2022/06/25 07:06:09;;;;;;;9.60;1.80;;;;;;;;;;4990751;28;20168;-76
2022/06/25 07:08:35;;;;;;;12.68;2.42;;;;;;;;;;4997795;28;20475;-75
2022/06/25 07:11:01;;;;;;;12.20;2.30;;;;;;;;;;4994526;28;20049;-76
2022/06/25 07:13:27;;;;;;;12.48;2.55;;;;;;;;;;5001919;28;20108;-76
2022/06/25 07:15:54;;;;;;;18.75;2.83;;;;;;;;;;4997564;28;20036;-76
2022/06/25 07:18:21;;;;;;;19.50;3.08;;;;;;;;;;4984573;28;20068;-76
2022/06/25 07:20:47;;;;;;;19.25;2.75;;;;;;;;;;4948329;28;20030;-76
2022/06/25 07:23:14;;;;;;;13.95;2.80;;;;;;;;;;4992058;28;20440;-76
2022/06/25 07:25:41;;;;;;;12.95;2.60;;;;;;;;;;5013400;28;20076;-75
2022/06/25 07:28:08;;;;;;;15.35;2.88;;;;;;;;;;5027022;28;20045;-76
2022/06/25 07:30:34;;;;;;;16.55;2.90;;;;;;;;;;5007169;28;20033;-76
2022/06/25 07:33:00;;;;;;;16.45;3.03;;;;;;;;;;5006812;28;20037;-76
2022/06/25 07:35:26;;;;;;;14.95;2.53;;;;;;;;;;5029268;28;20131;-76
2022/06/25 07:37:53;;;;;;;17.67;2.90;;;;;;;;;;5023898;28;20025;-76
2022/06/25 07:40:21;;;;;;;14.18;2.70;;;;;;;;;;5018968;28;20495;-77
2022/06/25 07:42:47;;;;;;;20.48;3.17;;;;;;;;;;5006228;28;20029;-76
2022/06/25 07:45:14;;;;;;;13.05;2.95;;;;;;;;;;5004445;28;20114;-76
2022/06/25 07:47:40;;;;;;;15.63;3.33;;;;;;;;;;5024509;28;20080;-76
2022/06/25 07:52:52;;;;;;;15.93;3.17;;;;;;;;;;5020543;28;20048;-75
2022/06/25 07:55:24;;;;;;;14.13;3.08;;;;;;;;;;5003889;28;20052;-76
2022/06/25 07:57:54;;;;;;;13.93;3.00;;;;;;;;;;5022333;28;20039;-78
2022/06/25 08:00:23;;;;;;;16.55;3.63;;;;;;;;;;5026139;28;20035;-75
2022/06/25 08:02:51;;;;;;;17.33;2.60;;;;;;;;;;5010163;28;20056;-75
2022/06/25 08:05:20;;;;;;;16.83;3.33;;;;;;;;;;5001788;28;20036;-77
2022/06/25 08:07:49;;;;;;;16.20;3.00;;;;;;;;;;5022241;28;20058;-75
2022/06/25 08:10:17;;;;;;;14.68;2.83;;;;;;;;;;4999320;28;20036;-75
2022/06/25 08:12:45;;;;;;;17.08;3.00;;;;;;;;;;5025920;28;20025;-75
2022/06/25 08:15:12;;;;;;;13.68;2.85;;;;;;;;;;4997303;28;20411;-75
2022/06/25 08:17:38;;;;;;;12.00;2.90;;;;;;;;;;5021141;28;20155;-75
2022/06/25 08:20:06;;;;;;;15.90;2.83;;;;;;;;;;5015915;28;20044;-76
2022/06/25 08:22:33;;;;;;;20.02;3.50;;;;;;;;;;5002383;28;20037;-76
2022/06/25 08:25:03;;;;;;;14.70;2.47;;;;;;;;;;5017853;28;20037;-71
2022/06/25 08:27:32;;;;;;;16.35;3.10;;;;;;;;;;4999605;28;20045;-72
2022/06/25 08:30:00;;;;;;;20.27;3.53;;;;;;;;;;5003093;28;20032;-71
2022/06/25 08:32:28;;;;;;;16.80;2.55;;;;;;;;;;4989924;28;20045;-72
2022/06/25 08:34:56;;;;;;;14.82;3.28;;;;;;;;;;4992923;28;20029;-71
2022/06/25 08:37:24;;;;;;;18.50;3.22;;;;;;;;;;5002050;28;20123;-72
2022/06/25 08:39:54;;;;;;;16.55;3.40;;;;;;;;;;5001442;28;20069;-72
2022/06/25 08:42:25;;;;;;;17.17;3.33;;;;;;;;;;5005190;28;20826;-72
2022/06/25 08:45:05;;;;;;;15.40;2.63;;;;;;;;;;5005358;28;20503;-70
2022/06/25 08:47:33;;;;;;;14.77;2.63;;;;;;;;;;4995121;28;20041;-71
2022/06/25 08:50:02;;;;;;;21.70;3.20;;;;;;;;;;4992707;28;20034;-71
2022/06/25 08:52:32;;;;;;;21.10;3.08;;;;;;;;;;4998907;28;20033;-71
2022/06/25 08:54:59;;;;;;;15.70;3.10;;;;;;;;;;4983287;28;20451;-71
2022/06/25 08:57:25;;;;;;;18.20;2.97;;;;;;;;;;5012260;28;20030;-71
2022/06/25 08:59:52;;;;;;;16.80;3.03;;;;;;;;;;5008508;28;20025;-70
2022/06/25 09:02:18;;;;;;;12.50;3.08;;;;;;;;;;5005618;28;20029;-70
2022/06/25 09:04:44;;;;;;;19.40;3.47;;;;;;;;;;4991649;28;20044;-71
2022/06/25 09:07:15;;;;;;;15.80;3.30;;;;;;;;;;4999347;28;20873;-72
2022/06/25 09:09:46;;;;;;;16.95;3.05;;;;;;;;;;4986020;28;20026;-70
2022/06/25 09:12:15;;;;;;;20.13;3.00;;;;;;;;;;4986716;28;20040;-72
2022/06/25 09:14:41;;;;;;;21.40;3.40;;;;;;;;;;5001709;28;20030;-72
2022/06/25 09:17:10;;;;;;;15.30;3.55;;;;;;;;;;4986141;28;20060;-71
2022/06/25 09:19:43;;;;;;;18.80;3.33;;;;;;;;;;5005795;28;20498;-71
2022/06/25 09:22:23;;;;;;;16.48;3.03;;;;;;;;;;5004075;28;20049;-70
2022/06/25 09:24:58;;;;;;;14.77;3.00;;;;;;;;;;4992414;28;20563;-70
2022/06/25 09:27:43;;;;;;;12.90;3.00;;;;;;;;;;5023624;28;20049;-70
2022/06/25 09:30:11;;;;;;;15.63;3.13;;;;;;;;;;5003596;28;20033;-72
2022/06/25 09:32:45;;;;;;;15.88;3.00;;;;;;;;;;5005944;28;20045;-73
2022/06/25 09:35:28;;;;;;;14.35;3.10;;;;;;;;;;5009660;28;21160;-74
2022/06/25 09:37:54;;;;;;;20.50;3.40;;;;;;;;;;5011370;28;20505;-74
2022/06/25 09:40:22;;;;;;;15.02;3.28;;;;;;;;;;5026434;28;20080;-76
2022/06/25 09:42:52;;;;;;;19.17;3.25;;;;;;;;;;5034909;28;20324;-76
2022/06/25 09:45:18;;;;;;;14.65;2.58;;;;;;;;;;5010665;28;20320;-78
2022/06/25 09:47:46;;;;;;;18.42;3.15;;;;;;;;;;5029324;28;20117;-76
2022/06/25 09:50:13;;;;;;;13.32;3.20;;;;;;;;;;5021431;28;20151;-75
2022/06/25 09:52:49;;;;;;;16.65;3.30;;;;;;;;;;5001860;28;20345;-77
2022/06/25 09:55:20;;;;;;;17.20;3.42;;;;;;;;;;5021477;28;20370;-71
2022/06/25 09:57:49;;;;;;;20.98;3.30;;;;;;;;;;5003102;28;20030;-72
2022/06/25 10:00:26;;;;;;;21.55;3.92;;;;;;;;;;5020235;28;20502;-77
2022/06/25 10:03:00;;;;;;;17.10;3.30;;;;;;;;;;4989852;28;20048;-78
2022/06/25 10:05:54;;;;;;;16.00;3.28;;;;;;;;;;5010544;28;20450;-80
2022/06/25 10:08:24;;;;;;;18.85;3.55;;;;;;;;;;5020105;28;20041;-78
2022/06/25 10:10:52;;;;;;;14.45;3.20;;;;;;;;;;5006855;28;20545;-78
2022/06/25 10:13:24;;;;;;;19.15;3.20;;;;;;;;;;5009112;28;20079;-79
2022/06/25 10:15:55;;;;;;;18.65;4.20;;;;;;;;;;5023482;28;20033;-77
2022/06/25 10:18:28;;;;;;;16.65;3.53;;;;;;;;;;4987502;28;20341;-72
2022/06/25 10:21:00;;;;;;;14.57;3.15;;;;;;;;;;4984472;28;20065;-71
2022/06/25 10:23:32;;;;;;;15.40;3.25;;;;;;;;;;4983237;28;20046;-73
2022/06/25 10:25:58;;;;;;;14.18;3.60;;;;;;;;;;4984090;28;20042;-72
2022/06/25 10:28:31;;;;;;;19.08;3.75;;;;;;;;;;4981905;28;20125;-71
2022/06/25 10:31:00;;;;;;;16.42;3.53;;;;;;;;;;4981563;28;21059;-72
2022/06/25 10:33:30;;;;;;;14.98;3.03;;;;;;;;;;4988637;28;20062;-71
2022/06/25 10:36:04;;;;;;;15.77;2.88;;;;;;;;;;4981030;28;20150;-72
2022/06/25 10:38:34;;;;;;;18.80;3.97;;;;;;;;;;4971761;28;20050;-79
2022/06/25 10:43:56;;;;;;;14.82;3.10;;;;;;;;;;4984385;28;20088;-80
2022/06/25 10:46:42;;;;;;;16.15;3.25;;;;;;;;;;5013030;28;20183;-78
2022/06/25 10:49:28;;;;;;;14.80;3.42;;;;;;;;;;5028353;28;20033;-80
2022/06/25 10:51:57;;;;;;;14.88;3.17;;;;;;;;;;5024311;28;20446;-79
2022/06/25 10:54:27;;;;;;;19.45;3.50;;;;;;;;;;5030302;28;20040;-79
2022/06/25 10:56:53;;;;;;;15.70;3.20;;;;;;;;;;5005237;28;20025;-77
2022/06/25 10:59:35;;;;;;;19.48;4.72;;;;;;;;;;5030334;28;20033;-76
2022/06/25 11:02:02;;;;;;;20.15;3.80;;;;;;;;;;5006904;28;20122;-79
2022/06/25 11:04:29;;;;;;;17.42;3.35;;;;;;;;;;5009724;28;20040;-79
2022/06/25 11:07:12;;;;;;;18.13;3.60;;;;;;;;;;4997895;28;20025;-78
2022/06/25 11:09:39;;;;;;;19.20;3.00;;;;;;;;;;5008383;28;20352;-78
2022/06/25 11:12:08;;;;;;;16.02;3.20;;;;;;;;;;5025513;28;20033;-74
2022/06/25 11:14:35;;;;;;;16.75;3.03;;;;;;;;;;5030821;28;20032;-75
2022/06/25 11:17:11;;;;;;;13.20;3.10;;;;;;;;;;5022940;28;20044;-79
2022/06/25 11:19:37;;;;;;;17.60;3.60;;;;;;;;;;5025086;28;20029;-73
2022/06/25 11:22:04;;;;;;;12.63;2.67;;;;;;;;;;5023998;28;20312;-76
2022/06/25 11:24:31;;;;;;;13.43;2.95;;;;;;;;;;5007842;28;20025;-74
2022/06/25 11:29:51;;;;;;;16.88;3.38;;;;;;;;;;5026396;28;20122;-76
2022/06/25 11:32:22;;;;;;;15.05;3.55;;;;;;;;;;5027498;28;20090;-77
2022/06/25 11:34:52;;;;;;;16.50;3.25;;;;;;;;;;5024539;28;20392;-73
2022/06/25 11:37:22;;;;;;;14.82;2.92;;;;;;;;;;5002087;28;20289;-75
2022/06/25 11:39:51;;;;;;;18.15;3.28;;;;;;;;;;5025842;28;20179;-76
2022/06/25 11:42:18;;;;;;;15.40;3.58;;;;;;;;;;5016948;28;20033;-78
2022/06/25 11:44:49;;;;;;;14.18;3.00;;;;;;;;;;5005224;28;20391;-79
2022/06/25 11:47:16;;;;;;;15.93;3.05;;;;;;;;;;4999267;28;20039;-78
2022/06/25 11:49:43;;;;;;;14.98;3.13;;;;;;;;;;5020025;28;20263;-77
2022/06/25 11:52:10;;;;;;;15.77;3.38;;;;;;;;;;5018970;28;20071;-73
2022/06/25 11:54:40;;;;;;;16.30;3.65;;;;;;;;;;5021216;28;20021;-79
2022/06/25 11:57:10;;;;;;;16.17;3.38;;;;;;;;;;5007577;28;20544;-77
2022/06/25 11:59:40;;;;;;;13.80;3.33;;;;;;;;;;5008477;28;20033;-79
2022/06/25 12:02:08;;;;;;;19.95;3.17;;;;;;;;;;4992566;28;20067;-78
2022/06/25 12:04:52;;;;;;;15.18;3.00;;;;;;;;;;5006244;28;20041;-78
2022/06/25 12:07:19;;;;;;;17.65;3.55;;;;;;;;;;5032569;28;20423;-79
2022/06/25 12:09:49;;;;;;;11.30;2.63;;;;;;;;;;5004600;28;20821;-79
2022/06/25 12:12:17;;;;;;;13.77;3.10;;;;;;;;;;5013933;28;20047;-80
2022/06/25 12:14:48;;;;;;;16.50;3.60;;;;;;;;;;5025814;28;20021;-79
2022/06/25 12:17:17;;;;;;;16.10;3.60;;;;;;;;;;4993123;28;20029;-79
2022/06/25 12:19:50;;;;;;;16.63;3.45;;;;;;;;;;5001021;28;20087;-78
2022/06/25 12:22:21;;;;;;;17.08;3.50;;;;;;;;;;5002807;28;20482;-78
2022/06/25 12:24:53;;;;;;;19.13;3.88;;;;;;;;;;5001510;28;20037;-73
2022/06/25 12:27:20;;;;;;;16.02;4.18;;;;;;;;;;5017283;28;20034;-79
2022/06/25 12:29:55;;;;;;;14.77;3.50;;;;;;;;;;4998947;28;20021;-79
2022/06/25 12:32:44;;;;;;;15.27;3.38;;;;;;;;;;5021963;28;20205;-79
2022/06/25 12:35:25;;;;;;;14.80;3.40;;;;;;;;;;5003024;28;20034;-80
2022/06/25 12:38:03;;;;;;;13.63;2.88;;;;;;;;;;5005667;28;20645;-78
2022/06/25 12:40:36;;;;;;;13.38;2.70;;;;;;;;;;5023043;28;20477;-79
2022/06/25 12:43:07;;;;;;;13.18;2.92;;;;;;;;;;5017890;28;21161;-79
2022/06/25 12:45:37;;;;;;;16.92;3.30;;;;;;;;;;5013093;28;20044;-76
2022/06/25 12:48:13;;;;;;;13.90;3.65;;;;;;;;;;5021373;28;20454;-71
2022/06/25 12:50:45;;;;;;;14.73;3.10;;;;;;;;;;4997761;28;20029;-75
2022/06/25 12:53:39;;;;;;;17.73;3.28;;;;;;;;;;5001418;28;20601;-77
2022/06/25 12:56:13;;;;;;;13.18;3.28;;;;;;;;;;5030179;28;20029;-79
2022/06/25 12:58:41;;;;;;;15.55;3.22;;;;;;;;;;5028540;28;20047;-79
2022/06/25 13:01:21;;;;;;;15.52;3.00;;;;;;;;;;5004361;28;21234;-79
2022/06/25 13:03:47;;;;;;;17.60;3.78;;;;;;;;;;5016411;28;20559;-78
2022/06/25 13:06:15;;;;;;;18.83;3.90;;;;;;;;;;5011886;28;20044;-70
2022/06/25 13:08:41;;;;;;;15.32;3.38;;;;;;;;;;5028019;28;20036;-70
2022/06/25 13:11:16;;;;;;;16.35;3.13;;;;;;;;;;5010161;28;20782;-79
2022/06/25 13:13:42;;;;;;;14.52;3.03;;;;;;;;;;5030896;28;20116;-78
2022/06/25 13:16:08;;;;;;;16.42;3.17;;;;;;;;;;5026452;28;20108;-80
2022/06/25 13:18:34;;;;;;;16.60;3.40;;;;;;;;;;5025641;28;20022;-80
2022/06/25 13:21:04;;;;;;;17.02;3.55;;;;;;;;;;5038003;28;20040;-79
2022/06/25 13:23:30;;;;;;;16.73;3.42;;;;;;;;;;4996980;28;20052;-78
2022/06/25 13:25:58;;;;;;;17.63;3.05;;;;;;;;;;5003762;28;20030;-73
2022/06/25 13:28:25;;;;;;;17.88;3.42;;;;;;;;;;5016853;28;20095;-79
2022/06/25 13:30:51;;;;;;;16.65;3.13;;;;;;;;;;5030983;28;20029;-79
2022/06/25 13:33:19;;;;;;;13.40;3.15;;;;;;;;;;5014960;28;20063;-78
2022/06/25 13:35:47;;;;;;;14.88;3.20;;;;;;;;;;5032053;28;20056;-78
2022/06/25 13:38:16;;;;;;;15.18;2.97;;;;;;;;;;5009828;28;20646;-77
2022/06/25 13:40:42;;;;;;;17.52;4.00;;;;;;;;;;5015140;28;20040;-78
2022/06/25 13:43:09;;;;;;;16.90;3.40;;;;;;;;;;5025295;28;20740;-79
2022/06/25 13:45:35;;;;;;;15.70;3.47;;;;;;;;;;5033778;28;20037;-79
2022/06/25 13:48:01;;;;;;;17.60;3.65;;;;;;;;;;5036001;28;20183;-79
2022/06/25 13:50:28;;;;;;;14.05;3.15;;;;;;;;;;5020210;28;20036;-78
2022/06/25 13:52:56;;;;;;;14.68;2.83;;;;;;;;;;5011635;28;20242;-73
2022/06/25 13:55:25;;;;;;;11.27;2.55;;;;;;;;;;5039210;28;20032;-78
2022/06/25 13:57:57;;;;;;;15.65;3.30;;;;;;;;;;5032144;28;20088;-79
2022/06/25 14:00:26;;;;;;;14.43;3.10;;;;;;;;;;5037116;28;20028;-77
2022/06/25 14:03:13;;;;;;;16.33;2.80;;;;;;;;;;5036326;28;20073;-79
2022/06/25 14:05:41;;;;;;;16.58;3.03;;;;;;;;;;5035948;28;20052;-81
2022/06/25 14:08:10;;;;;;;15.63;3.60;;;;;;;;;;5031939;28;20553;-78
2022/06/25 14:10:39;;;;;;;14.45;3.00;;;;;;;;;;5033461;28;20029;-80
2022/06/25 14:13:14;;;;;;;16.15;3.28;;;;;;;;;;5025879;28;20074;-80
2022/06/25 14:15:44;;;;;;;13.07;2.80;;;;;;;;;;5041697;28;20021;-80
2022/06/25 14:18:40;;;;;;;16.15;2.90;;;;;;;;;;5017410;28;20806;-75
2022/06/25 14:21:07;;;;;;;16.20;3.33;;;;;;;;;;5038125;28;20106;-80
2022/06/25 14:23:38;;;;;;;13.82;2.88;;;;;;;;;;5014421;28;20045;-79
2022/06/25 14:26:07;;;;;;;15.70;3.40;;;;;;;;;;5003362;28;20037;-79
2022/06/25 14:28:54;;;;;;;13.27;2.67;;;;;;;;;;5008962;28;20090;-78
2022/06/25 14:31:20;;;;;;;15.32;3.08;;;;;;;;;;5027849;28;20029;-78
2022/06/25 14:33:49;;;;;;;13.25;3.08;;;;;;;;;;5016663;28;20039;-79
2022/06/25 14:42:23;;;;;;;15.52;3.50;;;;;;;;;;5017956;28;20099;-73
2022/06/25 14:44:54;;;;;;;12.88;3.17;;;;;;;;;;5003417;28;21267;-74
2022/06/25 14:47:22;;;;;;;15.63;3.03;;;;;;;;;;5021526;28;20572;-74
2022/06/25 14:49:57;;;;;;;11.23;2.80;;;;;;;;;;5007342;28;20037;-76
2022/06/25 14:52:26;;;;;;;15.55;3.28;;;;;;;;;;5004572;28;20033;-75
2022/06/25 14:54:52;;;;;;;15.95;3.03;;;;;;;;;;5019581;28;20108;-74
2022/06/25 14:57:21;;;;;;;18.73;3.80;;;;;;;;;;5008450;28;20021;-75
2022/06/25 14:59:48;;;;;;;15.88;3.72;;;;;;;;;;5027777;28;20039;-75
2022/06/25 15:02:14;;;;;;;13.73;3.40;;;;;;;;;;5026468;28;20059;-76
2022/06/25 15:04:40;;;;;;;16.65;3.40;;;;;;;;;;5005226;28;20163;-74
2022/06/25 15:07:08;;;;;;;14.02;2.83;;;;;;;;;;5008398;28;20063;-79
2022/06/25 15:09:36;;;;;;;12.93;3.10;;;;;;;;;;5028473;28;20031;-79
2022/06/25 15:12:03;;;;;;;17.33;3.35;;;;;;;;;;5005920;28;20063;-79
2022/06/25 15:14:30;;;;;;;19.38;3.47;;;;;;;;;;5009702;28;20043;-79
2022/06/25 15:17:00;;;;;;;16.00;3.45;;;;;;;;;;5026159;28;20359;-79